Buoy 41991

sailwx.info

Track history (hours):
 
Tides and Currents Weather Stations Pressure Air Temp Water Temp Dewpoint Dewpoint Depression Visibility Wind Speed Wind Dir Waves Ship Positions

Drifting buoy 41991

Last reported at 2017-Jul-18 12:55 UTC. Time now 2017-Oct-16 22:25 UTC.
Position N 32°16' W 064°49'.
Warning: this ship's position is months out of date.

Water temperature 27.4 ° C

Date/timePositionNaut miles runAvg speedWind from/ knotsBaromVisibWave heightAir tempDewpointWater temp
2017-Jul-18 12:55N 32°16' W 064°49'0 0.0 27.4
2017-Jul-18 09:51N 32°16' W 064°49'0 0.0
2017-Jul-18 07:59N 32°16' W 064°49'0 0.0 24.7
2017-Jul-18 02:00N 32°16' W 064°49'0 0.0 24.9
2017-Jul-18 01:05N 32°16' W 064°49'0 0.0 24.7
2017-Jul-17 22:59N 32°16' W 064°49'0 0.0 24.8
2017-Jul-17 22:48N 32°16' W 064°49'0 0.0 24.7
2017-Jul-17 14:46N 32°16' W 064°49'0 0.0 29.7
2017-Jul-17 13:55N 32°16' W 064°49'1 0.6 26.1
2017-Jul-17 13:05N 32°16' W 064°48'1 0.1 26.2
2017-Jul-16 23:01N 32°16' W 064°49'1 6.1 29.4
2017-Jul-16 22:56N 32°16' W 064°49'1 0.1 29.4
2017-Jul-16 18:03N 32°16' W 064°49'1 0.1 32.9
2017-Jul-16 10:59N 32°16' W 064°49'0 0.0 25.4
2017-Jul-16 10:55N 32°16' W 064°49'0 0.0 25.4
2017-Jul-15 23:06N 32°16' W 064°49'0 0.0
2017-Jul-15 22:05N 32°16' W 064°49'1 0.2 30.0
2017-Jul-15 19:51N 32°16' W 064°49'1 0.1
2017-Jul-15 12:49N 32°16' W 064°49'0 0.0 33.8
2017-Jul-15 11:52N 32°16' W 064°49'0 0.0 30.4
2017-Jul-15 11:48N 32°16' W 064°49'0 0.0 30.4
2017-Jul-15 10:58N 32°16' W 064°49'0 0.0 27.2
2017-Jul-15 09:48N 32°16' W 064°49'0 0.0 25.6
2017-Jul-15 06:47N 32°16' W 064°49'0 0.0
2017-Jul-14 20:05N 32°16' W 064°49'1 0.2 31.0
2017-Jul-14 14:54N 32°17' W 064°50'0 0.0 37.9
2017-Jul-14 12:00N 32°17' W 064°50'1 0.4 29.5
2017-Jul-14 08:45N 32°16' W 064°49'0 0.0 25.1
2017-Jul-14 01:46N 32°16' W 064°49'0 0.0 27.0
2017-Jul-14 00:49N 32°16' W 064°49'0 0.0 27.3
2017-Jul-13 23:06N 32°16' W 064°49'0 0.0 28.7
2017-Jul-13 23:00N 32°16' W 064°49'0 0.0 28.7
2017-Jul-13 21:56N 32°16' W 064°49'0 0.0 29.5
2017-Jul-13 10:51N 32°16' W 064°49'0 0.0
2017-Jul-13 10:49N 32°16' W 064°49'0 0.0 26.2
2017-Jul-13 10:03N 32°16' W 064°49'0 0.0 25.2
2017-Jul-13 09:09N 32°16' W 064°49'0 0.0 25.0
2017-Jul-13 08:55N 32°16' W 064°49'0 0.0 25.1
2017-Jul-13 01:09N 32°16' W 064°49'0 0.0 27.1
2017-Jul-12 23:49N 32°16' W 064°49'0 0.0 27.8
2017-Jul-12 23:46N 32°16' W 064°49'0 0.0 27.8
2017-Jul-12 22:04N 32°16' W 064°49'0 0.0 29.2
2017-Jul-12 21:59N 32°16' W 064°49'0 0.0 29.2
2017-Jul-12 21:50N 32°16' W 064°49'0 0.0 29.5
2017-Jul-12 18:51N 32°16' W 064°49'0 0.0 31.6
2017-Jul-12 18:48N 32°16' W 064°49'0 0.0 31.6
2017-Jul-12 14:47N 32°16' W 064°49'0 0.0 36.7
2017-Jul-12 13:57N 32°16' W 064°49'0 0.0 35.1
2017-Jul-12 09:05N 32°16' W 064°49'0 0.0 25.6
2017-Jul-11 23:57N 32°16' W 064°49'0 0.0 27.4
2017-Jul-11 18:56N 32°16' W 064°49'0 0.0 31.4
2017-Jul-11 10:58N 32°16' W 064°49'0 0.0 26.8
2017-Jul-11 01:09N 32°16' W 064°49'0 0.0 26.9
2017-Jul-10 23:01N 32°16' W 064°49'0 0.0 28.1
2017-Jul-10 22:57N 32°16' W 064°49'0 0.0 28.1
2017-Jul-10 19:11N 32°16' W 064°49'1 0.1 30.3
2017-Jul-10 13:52N 32°16' W 064°49'1 0.1 33.0
2017-Jul-10 09:03N 32°16' W 064°49'0 0.0 25.4
2017-Jul-10 07:51N 32°16' W 064°49'0 0.0 25.5
2017-Jul-09 23:00N 32°16' W 064°49'1 0.1 26.2
2017-Jul-09 14:59N 32°16' W 064°48'0 0.0 37.6
2017-Jul-09 12:57N 32°16' W 064°48'1 0.1 33.6
2017-Jul-09 08:01N 32°16' W 064°49'0 0.0 25.4
2017-Jul-09 01:50N 32°16' W 064°49'0 0.0 26.7
2017-Jul-08 22:52N 32°16' W 064°49'0 0.0 28.9
2017-Jul-08 21:48N 32°16' W 064°49'0 0.0 30.0
2017-Jul-08 13:07N 32°16' W 064°49'  
Track history (hours):
 
Tides and Currents Weather Stations Pressure Air Temp Water Temp Dewpoint Dewpoint Depression Visibility Wind Speed Wind Dir Waves Ship Positions

Drifting buoy 41991

Last reported at 2017-Jul-18 12:55 UTC. Time now 2017-Oct-16 22:25 UTC.
Position N 32°16' W 064°49'.
Warning: this ship's position is months out of date.

Water temperature 27.4 ° C

Date/timePositionNaut miles runAvg speedWind from/ knotsBaromVisibWave heightAir tempDewpointWater temp
2017-Jul-18 12:55N 32°16' W 064°49'0 0.0 27.4
2017-Jul-18 09:51N 32°16' W 064°49'0 0.0
2017-Jul-18 07:59N 32°16' W 064°49'0 0.0 24.7
2017-Jul-18 02:00N 32°16' W 064°49'0 0.0 24.9
2017-Jul-18 01:05N 32°16' W 064°49'0 0.0 24.7
2017-Jul-17 22:59N 32°16' W 064°49'0 0.0 24.8
2017-Jul-17 22:48N 32°16' W 064°49'0 0.0 24.7
2017-Jul-17 14:46N 32°16' W 064°49'0 0.0 29.7
2017-Jul-17 13:55N 32°16' W 064°49'1 0.6 26.1
2017-Jul-17 13:05N 32°16' W 064°48'1 0.1 26.2
2017-Jul-16 23:01N 32°16' W 064°49'1 6.1 29.4
2017-Jul-16 22:56N 32°16' W 064°49'1 0.1 29.4
2017-Jul-16 18:03N 32°16' W 064°49'1 0.1 32.9
2017-Jul-16 10:59N 32°16' W 064°49'0 0.0 25.4
2017-Jul-16 10:55N 32°16' W 064°49'0 0.0 25.4
2017-Jul-15 23:06N 32°16' W 064°49'0 0.0
2017-Jul-15 22:05N 32°16' W 064°49'1 0.2 30.0
2017-Jul-15 19:51N 32°16' W 064°49'1 0.1
2017-Jul-15 12:49N 32°16' W 064°49'0 0.0 33.8
2017-Jul-15 11:52N 32°16' W 064°49'0 0.0 30.4
2017-Jul-15 11:48N 32°16' W 064°49'0 0.0 30.4
2017-Jul-15 10:58N 32°16' W 064°49'0 0.0 27.2
2017-Jul-15 09:48N 32°16' W 064°49'0 0.0 25.6
2017-Jul-15 06:47N 32°16' W 064°49'0 0.0
2017-Jul-14 20:05N 32°16' W 064°49'1 0.2 31.0
2017-Jul-14 14:54N 32°17' W 064°50'0 0.0 37.9
2017-Jul-14 12:00N 32°17' W 064°50'1 0.4 29.5
2017-Jul-14 08:45N 32°16' W 064°49'0 0.0 25.1
2017-Jul-14 01:46N 32°16' W 064°49'0 0.0 27.0
2017-Jul-14 00:49N 32°16' W 064°49'0 0.0 27.3
2017-Jul-13 23:06N 32°16' W 064°49'0 0.0 28.7
2017-Jul-13 23:00N 32°16' W 064°49'0 0.0 28.7
2017-Jul-13 21:56N 32°16' W 064°49'0 0.0 29.5
2017-Jul-13 10:51N 32°16' W 064°49'0 0.0
2017-Jul-13 10:49N 32°16' W 064°49'0 0.0 26.2
2017-Jul-13 10:03N 32°16' W 064°49'0 0.0 25.2
2017-Jul-13 09:09N 32°16' W 064°49'0 0.0 25.0
2017-Jul-13 08:55N 32°16' W 064°49'0 0.0 25.1
2017-Jul-13 01:09N 32°16' W 064°49'0 0.0 27.1
2017-Jul-12 23:49N 32°16' W 064°49'0 0.0 27.8
2017-Jul-12 23:46N 32°16' W 064°49'0 0.0 27.8
2017-Jul-12 22:04N 32°16' W 064°49'0 0.0 29.2
2017-Jul-12 21:59N 32°16' W 064°49'0 0.0 29.2
2017-Jul-12 21:50N 32°16' W 064°49'0 0.0 29.5
2017-Jul-12 18:51N 32°16' W 064°49'0 0.0 31.6
2017-Jul-12 18:48N 32°16' W 064°49'0 0.0 31.6
2017-Jul-12 14:47N 32°16' W 064°49'0 0.0 36.7
2017-Jul-12 13:57N 32°16' W 064°49'0 0.0 35.1
2017-Jul-12 09:05N 32°16' W 064°49'0 0.0 25.6
2017-Jul-11 23:57N 32°16' W 064°49'0 0.0 27.4
2017-Jul-11 18:56N 32°16' W 064°49'0 0.0 31.4
2017-Jul-11 10:58N 32°16' W 064°49'0 0.0 26.8
2017-Jul-11 01:09N 32°16' W 064°49'0 0.0 26.9
2017-Jul-10 23:01N 32°16' W 064°49'0 0.0 28.1
2017-Jul-10 22:57N 32°16' W 064°49'0 0.0 28.1
2017-Jul-10 19:11N 32°16' W 064°49'1 0.1 30.3
2017-Jul-10 13:52N 32°16' W 064°49'1 0.1 33.0
2017-Jul-10 09:03N 32°16' W 064°49'0 0.0 25.4
2017-Jul-10 07:51N 32°16' W 064°49'0 0.0 25.5
2017-Jul-09 23:00N 32°16' W 064°49'1 0.1 26.2
2017-Jul-09 14:59N 32°16' W 064°48'0 0.0 37.6
2017-Jul-09 12:57N 32°16' W 064°48'1 0.1 33.6
2017-Jul-09 08:01N 32°16' W 064°49'0 0.0 25.4
2017-Jul-09 01:50N 32°16' W 064°49'0 0.0 26.7
2017-Jul-08 22:52N 32°16' W 064°49'0 0.0 28.9
2017-Jul-08 21:48N 32°16' W 064°49'0 0.0 30.0
2017-Jul-08 13:07N 32°16' W 064°49'  

Dump ship's entire track history